Adelaide, Australia

4:49 AM ACST on April 25, 2017 (GMT +0930)
Adelaide International | | Change Station

Elev 13 ft 34.93 °S, 138.52 °E | Updated 19 minutes ago

Partly Cloudy
Partly Cloudy
63 °F
Feels Like 63 °F
N
16
Wind Variable Wind from West

Today
High -- | Low -- °F
--% Chance of Precip.
Yesterday
High -- | Low -- °F
Precip. -- in
Pressure 29.89 in
Visibility 6.2 miles
Clouds Scattered Clouds 1700 ft
Dew Point 57 °F
Humidity 82%
Rainfall 0.00 in
Snow Depth Not available.
6:47 AM 5:40 PM
Waning Crescent, 4% visible
METAR YPAD 241900Z 27014KT 9999 SCT017 17/14 Q1012 NOSIG
Pressure 29.89 in
Visibility 6.2 miles
Clouds Scattered Clouds 1700 ft
Dew Point 57 °F
Humidity 82%
Rainfall 0.00 in
Snow Depth Not available.
6:47 AM 5:40 PM
Waning Crescent, 4% visible
METAR YPAD 241900Z 27014KT 9999 SCT017 17/14 Q1012 NOSIG

Get Severe Weather Alerts

Thanks for signing up!

Be on the lookout for a verification email in your inbox.

You'll start receiving the daily forecast at 8 AM.

×

10-Day Weather Forecast

×

Almanac

Astronomy

Apr. 25, 2017 Rise Set
Actual Time
Civil Twilight
Nautical Twilight
Astronomical Twilight
Moon
Length of Visible Light
Length of Day
Tomorrow will be .
, % of the Moon is Illuminated

Today's Extremes

Country Highs Country Lows

Community

WunderPhotos

WunderBlog® & News

Nearby

Air Quality

  Air Quality AQ Index Pollutant
Not available.

Snow Depth

Station Depth Elevation

Earthquake Activity

City Distance Mag. Time & Date
Minimum magnitude displayed is 2.5.

Coastal Water Temperatures

Place Temperature

Stations

Nearby Weather Stations

Station Location Temp. Windchill Dew Point Humidity Wind Precip. Elev Updated Type